Time;durP1;ratioP1;P1;durP2;ratioP2;P2;SDS_P1;SDS_P2;PMS_P1;PMS_P2;Temp;Humidity;BMP_temperature;BMP_pressure;BME280_temperature;BME280_humidity;BME280_pressure;Samples;Min_cycle;Max_cycle;Signal;HPM_P1;HPM_P2
2021/01/26 00:01:01;;;;;;;13.93;12.10;;;5.50;84.40;;;;;;5109466;28;20690;-55
2021/01/26 00:03:27;;;;;;;13.57;11.27;;;5.40;84.70;;;;;;5100675;28;21021;-55
2021/01/26 00:05:54;;;;;;;16.03;10.43;;;5.40;84.60;;;;;;5090088;28;20617;-55
2021/01/26 00:08:23;;;;;;;14.03;12.57;;;5.30;85.10;;;;;;5100728;28;20652;-55
2021/01/26 00:10:50;;;;;;;12.40;10.77;;;5.20;85.00;;;;;;5089348;28;20636;-55
2021/01/26 00:13:17;;;;;;;11.67;10.43;;;5.20;85.50;;;;;;5103863;28;20746;-55
2021/01/26 00:15:45;;;;;;;12.53;11.03;;;5.20;85.20;;;;;;5109726;28;20707;-55
2021/01/26 00:18:11;;;;;;;17.80;12.35;;;5.10;85.40;;;;;;5109271;28;20631;-55
2021/01/26 00:20:38;;;;;;;16.47;13.37;;;5.00;86.00;;;;;;5103626;28;20642;-55
2021/01/26 00:23:05;;;;;;;14.03;10.70;;;4.90;86.10;;;;;;5095060;28;20652;-55
2021/01/26 00:25:33;;;;;;;12.83;11.53;;;4.90;86.60;;;;;;5109809;28;20623;-55
2021/01/26 00:28:00;;;;;;;13.13;11.73;;;4.80;86.70;;;;;;5110000;28;20627;-55
2021/01/26 00:30:29;;;;;;;14.60;13.03;;;4.90;87.10;;;;;;5093780;28;20623;-55
2021/01/26 00:32:58;;;;;;;13.93;11.70;;;4.90;87.00;;;;;;5105173;28;20628;-55
2021/01/26 00:35:25;;;;;;;12.23;9.07;;;4.90;87.10;;;;;;5103120;28;21239;-54
2021/01/26 00:37:52;;;;;;;13.70;12.30;;;4.80;87.20;;;;;;5112233;28;20687;-55
2021/01/26 00:40:19;;;;;;;15.33;11.93;;;4.90;87.50;;;;;;5111808;28;20641;-55
2021/01/26 00:42:46;;;;;;;15.43;11.03;;;4.80;87.60;;;;;;5100812;28;20697;-53
2021/01/26 00:45:13;;;;;;;13.20;9.73;;;4.80;87.90;;;;;;5101115;28;20688;-55
2021/01/26 00:47:40;;;;;;;11.63;9.50;;;4.80;88.30;;;;;;5113093;28;20337;-55
2021/01/26 00:50:09;;;;;;;12.20;9.90;;;4.70;88.20;;;;;;5112904;28;21275;-55
2021/01/26 00:52:36;;;;;;;13.67;11.27;;;4.90;88.40;;;;;;5113086;28;20611;-55
2021/01/26 00:55:03;;;;;;;11.90;10.50;;;4.90;87.90;;;;;;5112854;28;20652;-54
2021/01/26 00:57:29;;;;;;;13.27;10.30;;;4.90;87.70;;;;;;5110817;28;20676;-55
2021/01/26 00:59:56;;;;;;;11.13;9.93;;;4.80;87.60;;;;;;5111693;28;21251;-53
2021/01/26 01:02:23;;;;;;;12.20;10.90;;;4.70;87.70;;;;;;5112483;28;21062;-54
2021/01/26 01:04:50;;;;;;;12.20;10.13;;;4.70;88.00;;;;;;5112075;28;21262;-55
2021/01/26 01:07:18;;;;;;;13.93;10.90;;;4.70;88.10;;;;;;5112344;28;20619;-54
2021/01/26 01:09:44;;;;;;;13.33;10.43;;;4.60;88.10;;;;;;5112495;28;21057;-53
2021/01/26 01:12:11;;;;;;;10.17;9.17;;;4.50;88.30;;;;;;5098259;28;20639;-55
2021/01/26 01:14:39;;;;;;;7.83;7.03;;;4.50;88.70;;;;;;5092000;28;20685;-54
2021/01/26 01:17:05;;;;;;;8.70;6.90;;;4.50;89.30;;;;;;5091701;28;20708;-54
2021/01/26 01:19:32;;;;;;;8.10;7.27;;;4.50;89.30;;;;;;5092303;28;20729;-54
2021/01/26 01:21:59;;;;;;;11.30;10.20;;;4.60;89.80;;;;;;5092028;28;20656;-54
2021/01/26 01:24:26;;;;;;;10.27;9.20;;;4.60;88.80;;;;;;5092051;28;20978;-54
2021/01/26 01:26:53;;;;;;;10.57;8.87;;;4.60;88.20;;;;;;5111174;28;21062;-54
2021/01/26 01:29:20;;;;;;;12.97;10.47;;;4.60;87.80;;;;;;5110733;28;20671;-54
2021/01/26 01:31:46;;;;;;;12.90;10.57;;;4.60;88.20;;;;;;5112045;28;20668;-54
2021/01/26 01:34:13;;;;;;;7.78;6.07;;;4.50;88.20;;;;;;5107019;28;21146;-54
2021/01/26 01:36:40;;;;;;;12.73;9.00;;;4.50;88.30;;;;;;5092532;28;20201;-54
2021/01/26 01:39:07;;;;;;;13.02;7.63;;;4.40;89.30;;;;;;5104636;28;20664;-54
2021/01/26 01:41:36;;;;;;;14.67;10.97;;;4.40;90.10;;;;;;5091810;28;20210;-54
2021/01/26 01:44:03;;;;;;;15.53;8.90;;;4.30;90.40;;;;;;5091441;28;20643;-54
2021/01/26 01:46:31;;;;;;;13.90;9.63;;;4.40;90.60;;;;;;5091598;28;20660;-54
2021/01/26 01:48:58;;;;;;;14.07;11.73;;;4.30;90.70;;;;;;5091301;28;20644;-53
2021/01/26 01:51:25;;;;;;;14.90;10.32;;;4.30;90.60;;;;;;5102194;28;20754;-54
2021/01/26 01:53:54;;;;;;;13.95;11.73;;;4.30;90.90;;;;;;5111767;28;20266;-54
2021/01/26 01:56:25;;;;;;;12.30;10.27;;;4.40;90.90;;;;;;5111371;28;20201;-54
2021/01/26 01:58:55;;;;;;;14.00;11.50;;;4.40;90.60;;;;;;5093335;28;20656;-54
2021/01/26 02:01:22;;;;;;;12.98;10.65;;;4.40;90.60;;;;;;5091540;28;20671;-52
2021/01/26 02:03:51;;;;;;;8.27;6.90;;;4.50;90.60;;;;;;5090720;28;20202;-54
2021/01/26 02:06:18;;;;;;;13.23;11.70;;;4.40;90.20;;;;;;5072635;28;20638;-54
2021/01/26 02:08:50;;;;;;;11.05;9.43;;;4.40;90.50;;;;;;5090734;28;20652;-53
2021/01/26 02:11:17;;;;;;;13.10;11.00;;;4.50;90.60;;;;;;5090951;28;20323;-54
2021/01/26 02:13:44;;;;;;;12.37;8.13;;;4.60;90.40;;;;;;5109525;28;20688;-54
2021/01/26 02:16:14;;;;;;;11.65;9.43;;;4.60;90.30;;;;;;5108370;28;20630;-53
2021/01/26 02:18:56;;;;;;;13.23;11.53;;;4.50;90.40;;;;;;5110905;28;20689;-54
2021/01/26 02:21:44;;;;;;;15.83;9.63;;;4.50;90.90;;;;;;5111064;28;21185;-53
2021/01/26 02:24:44;;;;;;;14.70;11.73;;;4.50;91.00;;;;;;5092459;28;21214;-54
2021/01/26 02:27:38;;;;;;;14.93;11.32;;;4.50;91.30;;;;;;5064970;28;20619;-54
2021/01/26 02:30:22;;;;;;;10.43;8.23;;;4.50;91.40;;;;;;5091965;28;20295;-54
2021/01/26 02:33:25;;;;;;;11.75;9.40;;;4.40;91.50;;;;;;5111304;28;20254;-53
2021/01/26 02:36:14;;;;;;;15.23;10.87;;;4.40;91.60;;;;;;5110381;28;20197;-53
2021/01/26 02:39:07;;;;;;;19.45;14.10;;;4.40;91.60;;;;;;5110433;28;20720;-54
2021/01/26 02:41:37;;;;;;;16.07;12.50;;;4.40;91.70;;;;;;5093249;28;20274;-54
2021/01/26 02:44:07;;;;;;;15.33;12.77;;;4.40;91.80;;;;;;5100996;28;20628;-53
2021/01/26 02:46:44;;;;;;;14.77;11.37;;;4.40;91.80;;;;;;5090220;28;20628;-53
2021/01/26 02:49:24;;;;;;;14.93;10.32;;;4.40;91.70;;;;;;5090227;28;20647;-54
2021/01/26 02:51:54;;;;;;;19.00;13.83;;;4.40;91.80;;;;;;5091376;28;20194;-54
2021/01/26 02:54:25;;;;;;;17.37;14.73;;;4.40;92.00;;;;;;5090078;28;20632;-54
2021/01/26 02:56:56;;;;;;;13.30;10.13;;;4.40;92.00;;;;;;5089477;28;20990;-54
2021/01/26 02:59:28;;;;;;;16.45;12.82;;;4.40;92.00;;;;;;5090227;28;20642;-53
2021/01/26 03:01:56;;;;;;;14.98;12.35;;;4.30;92.00;;;;;;5090445;28;20215;-54
2021/01/26 03:04:25;;;;;;;16.35;13.60;;;4.30;92.10;;;;;;5089983;28;20205;-54
2021/01/26 03:06:52;;;;;;;17.83;12.07;;;4.40;92.20;;;;;;5089363;28;20210;-54
2021/01/26 03:09:22;;;;;;;15.40;10.05;;;4.30;92.00;;;;;;5088432;28;20659;-52
2021/01/26 03:11:49;;;;;;;16.97;12.93;;;4.30;92.10;;;;;;5089348;28;20262;-54
2021/01/26 03:14:18;;;;;;;18.13;13.50;;;4.40;92.10;;;;;;5109771;28;20688;-53
2021/01/26 03:16:47;;;;;;;13.40;8.93;;;4.40;92.30;;;;;;5110719;28;20349;-53
2021/01/26 03:19:15;;;;;;;15.00;11.70;;;4.30;92.30;;;;;;5091914;28;20646;-53
2021/01/26 03:21:43;;;;;;;14.67;11.03;;;4.30;92.10;;;;;;5089748;28;20687;-53
2021/01/26 03:24:12;;;;;;;14.00;10.17;;;4.30;92.10;;;;;;5090352;28;20964;-54
2021/01/26 03:26:39;;;;;;;14.25;10.63;;;4.30;92.20;;;;;;5090181;28;21182;-54
2021/01/26 03:29:07;;;;;;;19.93;12.90;;;4.20;92.20;;;;;;5109233;28;20278;-54
2021/01/26 03:31:38;;;;;;;15.17;10.90;;;4.20;92.40;;;;;;5108118;28;20683;-53
2021/01/26 03:34:05;;;;;;;17.07;12.87;;;4.30;92.40;;;;;;5089213;28;20686;-53
2021/01/26 03:36:31;;;;;;;12.73;9.63;;;4.30;92.30;;;;;;5089577;28;20770;-53
2021/01/26 03:38:58;;;;;;;16.77;12.23;;;4.30;92.30;;;;;;5089017;28;20291;-54
2021/01/26 03:41:25;;;;;;;15.00;8.67;;;4.40;92.30;;;;;;5089565;28;20198;-53
2021/01/26 03:43:52;;;;;;;14.27;9.83;;;4.40;92.30;;;;;;5091209;28;21261;-53
2021/01/26 03:46:32;;;;;;;17.33;13.10;;;4.40;92.60;;;;;;5101446;28;20689;-53
2021/01/26 03:49:17;;;;;;;15.30;13.70;;;4.40;92.60;;;;;;5098785;28;20652;-54
2021/01/26 03:51:54;;;;;;;18.83;12.27;;;4.50;92.30;;;;;;5089809;28;20621;-54
2021/01/26 03:54:28;;;;;;;16.33;13.30;;;4.50;92.60;;;;;;5089620;28;20686;-54
2021/01/26 03:57:19;;;;;;;19.60;14.20;;;4.50;92.20;;;;;;5089460;28;20681;-54
2021/01/26 03:59:57;;;;;;;13.10;9.13;;;4.50;92.30;;;;;;5089755;28;20663;-53
2021/01/26 04:02:27;;;;;;;17.00;13.77;;;4.50;92.20;;;;;;5097997;28;21171;-54
2021/01/26 04:04:59;;;;;;;17.53;12.47;;;4.50;92.30;;;;;;5113865;28;21039;-52
2021/01/26 04:07:29;;;;;;;15.13;10.33;;;4.60;92.20;;;;;;5113262;28;20663;-53
2021/01/26 04:09:58;;;;;;;18.40;11.20;;;4.60;92.10;;;;;;5113848;28;20651;-54
2021/01/26 04:12:26;;;;;;;13.25;10.15;;;4.50;92.00;;;;;;5113052;28;20977;-54
2021/01/26 04:14:55;;;;;;;14.03;11.57;;;4.50;92.10;;;;;;5113487;28;20686;-54
2021/01/26 04:17:23;;;;;;;14.47;11.90;;;4.30;92.40;;;;;;5112708;28;20814;-53
2021/01/26 04:19:56;;;;;;;16.27;12.90;;;4.30;92.60;;;;;;5095360;28;21003;-53
2021/01/26 04:22:24;;;;;;;14.45;11.10;;;4.40;93.00;;;;;;5111499;28;20643;-54
2021/01/26 04:24:51;;;;;;;17.83;13.70;;;4.40;92.80;;;;;;5113310;28;20208;-53
2021/01/26 04:27:19;;;;;;;18.07;12.10;;;4.50;92.70;;;;;;5102622;28;20652;-54
2021/01/26 04:29:46;;;;;;;11.23;9.00;;;4.50;92.70;;;;;;5112863;28;20751;-54
2021/01/26 04:32:13;;;;;;;18.92;13.35;;;4.40;92.40;;;;;;5098291;28;20983;-53
2021/01/26 04:34:40;;;;;;;18.07;13.30;;;4.40;92.50;;;;;;5092646;28;20248;-53
2021/01/26 04:37:06;;;;;;;17.00;11.90;;;4.50;92.50;;;;;;5101919;28;20751;-54
2021/01/26 04:39:34;;;;;;;17.67;12.87;;;4.60;92.60;;;;;;5095507;28;20685;-53
2021/01/26 04:42:03;;;;;;;17.50;13.53;;;4.70;92.60;;;;;;5092435;28;20652;-54
2021/01/26 04:44:36;;;;;;;13.63;9.67;;;4.80;92.70;;;;;;5092737;28;20773;-54
2021/01/26 04:47:11;;;;;;;19.00;12.00;;;4.80;92.30;;;;;;5092618;28;21006;-54
2021/01/26 04:49:43;;;;;;;19.23;13.57;;;4.70;92.20;;;;;;5092857;28;20720;-53
2021/01/26 04:52:13;;;;;;;16.80;12.63;;;4.70;92.40;;;;;;5093238;28;20624;-56
2021/01/26 04:54:48;;;;;;;19.80;14.67;;;4.80;92.30;;;;;;5092601;28;20632;-54
2021/01/26 04:57:22;;;;;;;12.50;10.00;;;4.90;92.20;;;;;;5093054;28;20760;-54
2021/01/26 05:00:06;;;;;;;13.43;10.23;;;5.00;92.30;;;;;;5092803;28;20696;-55
2021/01/26 05:02:47;;;;;;;16.60;11.33;;;5.00;92.10;;;;;;5104124;28;20767;-55
2021/01/26 05:05:17;;;;;;;11.87;8.70;;;5.00;92.00;;;;;;5091524;28;20676;-55
2021/01/26 05:07:47;;;;;;;20.73;12.07;;;5.00;92.10;;;;;;5107554;28;20627;-55
2021/01/26 05:10:16;;;;;;;12.67;8.67;;;4.90;92.20;;;;;;5112288;28;21238;-53
2021/01/26 05:12:44;;;;;;;11.50;9.30;;;4.90;92.20;;;;;;5111516;28;20692;-55
2021/01/26 05:15:13;;;;;;;11.10;9.53;;;4.80;92.30;;;;;;5110090;28;20643;-54
2021/01/26 05:17:43;;;;;;;11.87;10.13;;;4.80;92.80;;;;;;5092389;28;20685;-54
2021/01/26 05:20:13;;;;;;;9.23;7.63;;;4.70;92.70;;;;;;5092190;28;20787;-54
2021/01/26 05:22:43;;;;;;;16.10;8.37;;;4.70;93.10;;;;;;5092100;28;21024;-54
2021/01/26 05:25:11;;;;;;;11.40;9.67;;;4.70;93.10;;;;;;5092075;28;20660;-54
2021/01/26 05:27:39;;;;;;;12.80;9.03;;;4.70;93.20;;;;;;5092029;28;21017;-54
2021/01/26 05:30:07;;;;;;;13.23;10.50;;;4.70;93.10;;;;;;5074508;28;20664;-55
2021/01/26 05:32:34;;;;;;;12.57;8.67;;;4.70;93.00;;;;;;5112161;28;20623;-54
2021/01/26 05:35:00;;;;;;;8.90;7.40;;;4.80;93.60;;;;;;5111912;28;20692;-54
2021/01/26 05:37:27;;;;;;;15.50;9.17;;;4.70;92.90;;;;;;5112184;28;20645;-53
2021/01/26 05:39:55;;;;;;;15.33;10.70;;;4.80;92.70;;;;;;5111635;28;20712;-53
2021/01/26 05:42:22;;;;;;;12.50;9.70;;;4.80;92.50;;;;;;5093689;28;20651;-53
2021/01/26 05:44:50;;;;;;;11.20;8.73;;;4.90;92.50;;;;;;5110745;28;20631;-54
2021/01/26 05:47:23;;;;;;;11.67;9.40;;;5.00;92.40;;;;;;5111669;28;20631;-55
2021/01/26 05:49:50;;;;;;;17.70;9.33;;;5.00;92.50;;;;;;5111523;28;20655;-54
2021/01/26 05:52:17;;;;;;;11.90;9.37;;;5.00;92.10;;;;;;5112224;28;21263;-54
2021/01/26 05:54:48;;;;;;;12.00;7.90;;;5.10;92.30;;;;;;5111270;28;20635;-55
2021/01/26 05:57:27;;;;;;;11.70;10.07;;;5.10;92.20;;;;;;5111447;28;20693;-53
2021/01/26 05:59:57;;;;;;;16.33;7.30;;;5.10;92.40;;;;;;5111500;28;21297;-53
2021/01/26 06:02:24;;;;;;;14.50;8.33;;;5.10;91.90;;;;;;5111288;28;20655;-54
2021/01/26 06:04:51;;;;;;;9.20;6.40;;;5.10;91.70;;;;;;5111495;28;20623;-53
2021/01/26 06:07:20;;;;;;;13.07;6.30;;;5.10;91.70;;;;;;5110961;28;20636;-55
2021/01/26 06:09:47;;;;;;;12.17;8.70;;;5.20;91.80;;;;;;5110045;28;20655;-53
2021/01/26 06:12:17;;;;;;;12.30;7.50;;;5.10;91.60;;;;;;5111153;28;20744;-53
2021/01/26 06:14:44;;;;;;;11.27;9.70;;;5.10;91.70;;;;;;5110936;28;20672;-54
2021/01/26 06:17:17;;;;;;;11.27;8.27;;;5.20;91.70;;;;;;5111030;28;20668;-54
2021/01/26 06:19:44;;;;;;;14.87;10.10;;;5.20;91.50;;;;;;5110817;28;20655;-55
2021/01/26 06:22:22;;;;;;;10.30;7.60;;;5.30;91.60;;;;;;5111016;28;20676;-55
2021/01/26 06:24:49;;;;;;;11.40;8.17;;;5.30;91.50;;;;;;5110180;28;21238;-54
2021/01/26 06:27:43;;;;;;;8.80;7.60;;;5.30;91.50;;;;;;5110569;28;20725;-52
2021/01/26 06:30:29;;;;;;;30.23;8.17;;;5.30;91.60;;;;;;5109618;28;20693;-52
2021/01/26 06:33:11;;;;;;;10.97;6.10;;;5.30;91.60;;;;;;5110571;28;20673;-54
2021/01/26 06:35:39;;;;;;;10.67;7.20;;;5.30;91.70;;;;;;5110827;28;20703;-54
2021/01/26 06:38:24;;;;;;;12.27;9.10;;;5.30;91.50;;;;;;5110283;28;21206;-53
2021/01/26 06:41:16;;;;;;;9.23;5.20;;;5.30;91.50;;;;;;5110603;28;20638;-56
2021/01/26 06:43:55;;;;;;;10.13;6.13;;;5.30;91.30;;;;;;5110093;28;20655;-53
2021/01/26 06:46:25;;;;;;;10.93;8.25;;;5.20;91.40;;;;;;5110925;28;21131;-54
2021/01/26 06:48:58;;;;;;;10.37;8.10;;;5.20;91.50;;;;;;5110545;28;20278;-53
2021/01/26 06:51:57;;;;;;;7.20;4.43;;;5.20;91.60;;;;;;5110635;28;21013;-54
2021/01/26 06:54:41;;;;;;;12.70;6.10;;;5.20;91.50;;;;;;5109882;28;20640;-53
2021/01/26 06:57:17;;;;;;;8.50;7.50;;;5.20;91.70;;;;;;5110487;28;20619;-55
2021/01/26 07:00:22;;;;;;;10.30;6.13;;;5.20;91.70;;;;;;5109952;28;20659;-55
2021/01/26 07:03:15;;;;;;;10.87;7.20;;;5.30;91.60;;;;;;5089841;28;20695;-54
2021/01/26 07:05:51;;;;;;;11.63;6.53;;;5.30;91.50;;;;;;5058981;28;20647;-53
2021/01/26 07:08:34;;;;;;;11.53;7.70;;;5.30;91.50;;;;;;5110427;28;20702;-54
2021/01/26 07:11:19;;;;;;;7.83;5.50;;;5.40;91.50;;;;;;5086610;28;21061;-54
2021/01/26 07:13:49;;;;;;;16.70;6.50;;;5.40;91.40;;;;;;5090283;28;20747;-54
2021/01/26 07:16:39;;;;;;;10.80;6.40;;;5.30;91.60;;;;;;5089540;28;20982;-54
2021/01/26 07:19:32;;;;;;;13.97;7.37;;;5.30;91.60;;;;;;5089797;28;20660;-54
2021/01/26 07:22:14;;;;;;;6.97;5.40;;;5.30;91.70;;;;;;5090209;28;20624;-54
2021/01/26 07:24:45;;;;;;;8.00;6.37;;;5.30;91.60;;;;;;5071861;28;20624;-54
2021/01/26 07:27:31;;;;;;;9.03;5.60;;;5.30;91.70;;;;;;5089784;28;20677;-53
2021/01/26 07:30:01;;;;;;;10.60;6.70;;;5.40;91.90;;;;;;5089831;28;20660;-54
2021/01/26 07:32:31;;;;;;;11.40;5.77;;;5.30;91.70;;;;;;5089387;28;20621;-53
2021/01/26 07:35:03;;;;;;;7.10;6.07;;;5.40;91.60;;;;;;5090212;28;20673;-53
2021/01/26 07:37:35;;;;;;;9.70;6.33;;;5.50;91.60;;;;;;5093344;28;20704;-53
2021/01/26 07:40:08;;;;;;;7.77;6.57;;;5.50;91.40;;;;;;5106847;28;20676;-54
2021/01/26 07:42:36;;;;;;;8.87;6.00;;;5.50;91.40;;;;;;5113763;28;20704;-54
2021/01/26 07:45:05;;;;;;;9.50;5.77;;;5.50;91.30;;;;;;5113928;28;20629;-54
2021/01/26 07:47:34;;;;;;;9.93;6.00;;;5.50;91.00;;;;;;5114038;28;20631;-53
2021/01/26 07:50:04;;;;;;;6.17;3.80;;;5.50;91.20;;;;;;5113899;28;20646;-53
2021/01/26 07:52:33;;;;;;;7.13;4.80;;;5.30;91.20;;;;;;5113757;28;20738;-54
2021/01/26 07:55:01;;;;;;;8.30;4.30;;;5.30;91.30;;;;;;5113830;28;20616;-53
2021/01/26 07:57:30;;;;;;;7.40;4.50;;;5.30;91.20;;;;;;5113952;28;20999;-54
2021/01/26 07:59:58;;;;;;;10.70;6.20;;;5.30;91.40;;;;;;5113886;28;20655;-54
2021/01/26 08:02:26;;;;;;;13.60;5.57;;;5.30;91.30;;;;;;5113884;28;21208;-55
2021/01/26 08:04:53;;;;;;;9.73;5.20;;;5.30;91.20;;;;;;5113922;28;20626;-54
2021/01/26 08:07:24;;;;;;;4.13;3.40;;;5.40;91.20;;;;;;5113861;28;20692;-52
2021/01/26 08:09:52;;;;;;;5.40;4.90;;;5.40;91.00;;;;;;5112175;28;20741;-53
2021/01/26 08:12:20;;;;;;;6.33;3.90;;;5.80;97.00;;;;;;5113201;28;21036;-52
2021/01/26 08:14:48;;;;;;;7.43;4.33;;;6.10;95.30;;;;;;5113710;28;21013;-54
2021/01/26 08:17:16;;;;;;;6.20;3.43;;;6.40;93.60;;;;;;5113300;28;20684;-53
2021/01/26 08:19:45;;;;;;;5.03;3.73;;;7.00;92.90;;;;;;5094933;28;20657;-54
2021/01/26 08:22:30;;;;;;;4.77;3.50;;;7.70;90.60;;;;;;5113819;28;20672;-53
2021/01/26 08:25:06;;;;;;;2.17;1.97;;;8.10;85.60;;;;;;5113115;28;20627;-54
2021/01/26 08:27:58;;;;;;;3.30;2.27;;;8.40;84.20;;;;;;5105174;28;20639;-53
2021/01/26 08:30:53;;;;;;;2.50;1.80;;;8.60;82.70;;;;;;5106281;28;20656;-53
2021/01/26 08:33:20;;;;;;;5.27;2.17;;;8.00;76.80;;;;;;5113154;28;20692;-53
2021/01/26 08:36:06;;;;;;;4.73;3.50;;;7.30;79.00;;;;;;5107047;28;20622;-55
2021/01/26 08:38:50;;;;;;;3.53;2.03;;;6.70;80.80;;;;;;5092292;28;20662;-54
2021/01/26 08:41:43;;;;;;;2.80;1.50;;;6.30;83.20;;;;;;5111424;28;20632;-53
2021/01/26 08:44:49;;;;;;;4.00;2.23;;;5.90;85.40;;;;;;5108388;28;21212;-53
2021/01/26 08:47:47;;;;;;;2.57;2.37;;;5.90;87.20;;;;;;5088532;28;20658;-53
2021/01/26 08:50:20;;;;;;;9.50;3.30;;;5.80;87.60;;;;;;5092210;28;20733;-54
2021/01/26 08:52:47;;;;;;;7.63;2.57;;;5.90;89.10;;;;;;5092577;28;21011;-55
2021/01/26 08:55:33;;;;;;;5.53;2.97;;;5.80;88.80;;;;;;5092075;28;20637;-54
2021/01/26 08:58:01;;;;;;;7.63;3.77;;;5.80;90.00;;;;;;5092109;28;20963;-54
2021/01/26 09:00:39;;;;;;;3.80;3.50;;;5.70;90.60;;;;;;5092565;28;20608;-53
2021/01/26 09:03:24;;;;;;;4.00;3.13;;;5.80;90.70;;;;;;5112180;28;20647;-53
2021/01/26 09:05:56;;;;;;;5.40;4.13;;;5.90;90.50;;;;;;5112889;28;20732;-54
2021/01/26 09:08:45;;;;;;;5.07;4.03;;;5.90;90.60;;;;;;5112047;28;20677;-54
2021/01/26 09:11:14;;;;;;;7.50;3.90;;;5.90;90.50;;;;;;5111716;28;20620;-54
2021/01/26 09:13:41;;;;;;;6.67;4.23;;;5.90;90.40;;;;;;5112380;28;20612;-54
2021/01/26 09:16:13;;;;;;;5.63;3.80;;;5.90;90.50;;;;;;5112211;28;21257;-53
2021/01/26 09:18:40;;;;;;;7.00;4.83;;;5.90;90.40;;;;;;5112147;28;20655;-54
2021/01/26 09:21:08;;;;;;;5.57;5.03;;;6.00;90.30;;;;;;5111851;28;21192;-55
2021/01/26 09:23:35;;;;;;;7.20;4.17;;;6.10;90.30;;;;;;5112209;28;20664;-55
2021/01/26 09:26:09;;;;;;;9.40;4.23;;;6.10;90.10;;;;;;5111778;28;20615;-54
2021/01/26 09:28:39;;;;;;;9.10;4.60;;;6.10;89.60;;;;;;5111972;28;20660;-54
2021/01/26 09:31:06;;;;;;;5.03;3.90;;;6.20;89.70;;;;;;5111843;28;20632;-54
2021/01/26 09:33:33;;;;;;;7.67;4.40;;;6.20;89.60;;;;;;5111493;28;20690;-54
2021/01/26 09:36:08;;;;;;;5.47;4.33;;;6.10;89.20;;;;;;5101485;28;21173;-54
2021/01/26 09:38:36;;;;;;;4.67;4.10;;;6.10;89.20;;;;;;5091530;28;20707;-54
2021/01/26 09:41:04;;;;;;;6.87;3.80;;;6.20;89.90;;;;;;5103489;28;20632;-54
2021/01/26 09:43:33;;;;;;;3.60;3.17;;;6.20;89.50;;;;;;5110873;28;20669;-54
2021/01/26 09:46:01;;;;;;;5.90;4.10;;;6.30;89.10;;;;;;5111980;28;20668;-54
2021/01/26 09:48:34;;;;;;;5.70;3.90;;;6.30;89.00;;;;;;5111413;28;20785;-54
2021/01/26 09:51:19;;;;;;;8.37;4.67;;;6.30;88.80;;;;;;5111980;28;20636;-54
2021/01/26 09:53:47;;;;;;;6.60;4.40;;;6.30;89.20;;;;;;5111533;28;20624;-54
2021/01/26 09:56:16;;;;;;;4.03;3.00;;;6.30;88.70;;;;;;5111086;28;20693;-54
2021/01/26 09:58:45;;;;;;;4.63;3.07;;;6.30;88.60;;;;;;5109955;28;20657;-54
2021/01/26 10:01:13;;;;;;;3.80;3.37;;;6.40;88.40;;;;;;5110977;28;20617;-52
2021/01/26 10:03:41;;;;;;;9.77;3.37;;;6.30;87.80;;;;;;5109533;28;20657;-52
2021/01/26 10:06:08;;;;;;;2.97;2.67;;;6.30;88.10;;;;;;5110797;28;20964;-54
2021/01/26 10:08:35;;;;;;;4.13;2.67;;;6.40;88.20;;;;;;5111496;28;20661;-54
2021/01/26 10:11:10;;;;;;;3.37;2.70;;;6.30;88.00;;;;;;5111108;28;20694;-54
2021/01/26 10:13:37;;;;;;;9.23;3.10;;;6.30;88.70;;;;;;5110124;28;20622;-52
2021/01/26 10:16:24;;;;;;;3.67;2.73;;;6.30;88.90;;;;;;5110825;28;20622;-54
2021/01/26 10:18:53;;;;;;;3.50;2.83;;;6.30;88.70;;;;;;5110773;28;20709;-54
2021/01/26 10:21:26;;;;;;;4.87;2.77;;;6.30;88.50;;;;;;5110629;28;20659;-53
2021/01/26 10:23:59;;;;;;;5.57;2.70;;;6.30;89.10;;;;;;5110782;28;20802;-54
2021/01/26 10:26:26;;;;;;;3.17;2.73;;;6.30;89.30;;;;;;5110823;28;20637;-53
2021/01/26 10:29:14;;;;;;;7.10;3.83;;;6.30;88.40;;;;;;5110478;28;20641;-53
2021/01/26 10:31:42;;;;;;;5.50;2.80;;;6.40;88.90;;;;;;5109932;28;20628;-53
2021/01/26 10:34:24;;;;;;;5.80;2.50;;;6.40;88.40;;;;;;5111169;28;20647;-54
2021/01/26 10:36:51;;;;;;;2.77;2.50;;;6.40;88.80;;;;;;5110055;28;20634;-54
2021/01/26 10:39:26;;;;;;;2.57;2.37;;;6.40;88.80;;;;;;5127619;22;21098;-56
2021/01/26 10:42:01;;;;;;;5.30;2.90;;;6.40;87.90;;;;;;5132808;27;20616;-59
2021/01/26 10:44:28;;;;;;;6.10;3.43;;;6.40;88.10;;;;;;5114079;27;20654;-61
2021/01/26 10:46:57;;;;;;;2.33;1.37;;;6.40;88.20;;;;;;5111850;28;20622;-60
2021/01/26 10:49:30;;;;;;;2.80;1.43;;;6.40;88.30;;;;;;5093135;28;20667;-60
2021/01/26 10:51:58;;;;;;;7.37;2.90;;;6.30;88.50;;;;;;5111306;28;20685;-58
2021/01/26 10:54:25;;;;;;;1.97;1.77;;;6.30;88.70;;;;;;5110679;28;20641;-59
2021/01/26 10:56:52;;;;;;;3.67;2.33;;;6.30;88.20;;;;;;5111396;28;20640;-57
2021/01/26 10:59:19;;;;;;;3.17;1.77;;;6.30;88.30;;;;;;5111089;28;20666;-57
2021/01/26 11:01:47;;;;;;;2.23;1.70;;;6.40;87.70;;;;;;5112410;28;20626;-58
2021/01/26 11:04:14;;;;;;;5.03;2.30;;;6.40;87.40;;;;;;5110972;28;21205;-58
2021/01/26 11:06:42;;;;;;;10.30;2.10;;;6.40;86.70;;;;;;5093262;28;20628;-58
2021/01/26 11:09:09;;;;;;;4.83;1.37;;;6.40;86.90;;;;;;5111181;28;20664;-59
2021/01/26 11:11:36;;;;;;;3.10;1.43;;;6.50;85.90;;;;;;5111027;28;20620;-60
2021/01/26 11:14:04;;;;;;;3.90;1.60;;;6.50;85.80;;;;;;5111778;28;20655;-57
2021/01/26 11:16:31;;;;;;;2.83;1.70;;;6.50;85.70;;;;;;5111288;28;20995;-58
2021/01/26 11:18:59;;;;;;;2.30;1.60;;;6.50;85.50;;;;;;5111334;28;21061;-58
2021/01/26 11:21:26;;;;;;;3.50;1.67;;;6.50;86.90;;;;;;5111243;28;20621;-59
2021/01/26 11:23:54;;;;;;;3.40;2.50;;;6.50;87.10;;;;;;5111208;28;21053;-59
2021/01/26 11:26:22;;;;;;;4.87;3.53;;;6.40;88.20;;;;;;5111025;28;20682;-58
2021/01/26 11:28:49;;;;;;;4.13;2.47;;;6.30;90.20;;;;;;5111257;28;21249;-60
2021/01/26 11:31:17;;;;;;;4.00;2.40;;;6.40;90.30;;;;;;5093578;28;20639;-58
2021/01/26 11:33:44;;;;;;;5.00;2.50;;;6.30;90.20;;;;;;5111772;28;20633;-59
2021/01/26 11:36:11;;;;;;;2.10;1.40;;;6.20;90.20;;;;;;5122714;27;20665;-58
2021/01/26 11:38:38;;;;;;;2.40;1.53;;;6.20;90.00;;;;;;5129301;28;20639;-58
2021/01/26 11:41:07;;;;;;;1.87;1.50;;;6.20;90.00;;;;;;5093466;28;20640;-57
2021/01/26 11:43:34;;;;;;;2.50;1.73;;;6.20;90.10;;;;;;5110883;28;21028;-57
2021/01/26 11:46:01;;;;;;;10.30;1.80;;;6.10;90.10;;;;;;5093228;28;20710;-58
2021/01/26 11:48:29;;;;;;;1.80;1.50;;;6.10;90.10;;;;;;5111183;28;21139;-57
2021/01/26 11:50:56;;;;;;;3.27;1.40;;;6.20;90.30;;;;;;5111272;28;20778;-57
2021/01/26 11:53:23;;;;;;;3.70;1.60;;;6.20;90.00;;;;;;5110770;28;20686;-59
2021/01/26 11:55:50;;;;;;;6.83;2.23;;;6.20;90.00;;;;;;5111543;28;20629;-58
2021/01/26 11:58:18;;;;;;;2.13;1.63;;;6.20;89.80;;;;;;5110963;28;20629;-58
2021/01/26 12:00:45;;;;;;;8.50;2.17;;;6.30;90.30;;;;;;5110810;28;20665;-58
2021/01/26 12:03:12;;;;;;;1.67;1.57;;;6.30;89.80;;;;;;5124002;27;20623;-60
2021/01/26 12:05:39;;;;;;;5.20;1.87;;;6.40;90.00;;;;;;5111002;28;20736;-58
2021/01/26 12:08:07;;;;;;;3.87;1.60;;;6.40;89.50;;;;;;5112996;28;21249;-58
2021/01/26 12:10:34;;;;;;;4.63;2.00;;;6.40;90.10;;;;;;5092951;28;21004;-59
2021/01/26 12:13:01;;;;;;;2.83;1.93;;;6.50;89.30;;;;;;5110220;28;20645;-58
2021/01/26 12:15:30;;;;;;;4.53;2.40;;;6.50;88.20;;;;;;5110810;28;21079;-58
2021/01/26 12:17:57;;;;;;;4.77;1.80;;;6.60;89.00;;;;;;5092412;28;20679;-59
2021/01/26 12:20:27;;;;;;;4.93;1.73;;;6.60;87.50;;;;;;5111385;28;20658;-58
2021/01/26 12:22:54;;;;;;;3.97;0.90;;;6.60;87.30;;;;;;5096065;28;20630;-60
2021/01/26 12:25:22;;;;;;;3.93;2.10;;;6.50;87.30;;;;;;5114648;28;21042;-55
2021/01/26 12:27:49;;;;;;;3.40;2.60;;;6.50;87.70;;;;;;5114443;28;20956;-59
2021/01/26 12:30:17;;;;;;;4.37;2.00;;;6.60;88.40;;;;;;5124205;27;20660;-60
2021/01/26 12:32:46;;;;;;;1.90;1.80;;;6.60;88.60;;;;;;5128459;27;20635;-58
2021/01/26 12:35:14;;;;;;;3.33;1.43;;;6.60;87.50;;;;;;5113144;27;20744;-58
2021/01/26 12:37:41;;;;;;;7.73;3.73;;;6.50;87.80;;;;;;5113707;28;20621;-56
2021/01/26 12:40:09;;;;;;;5.67;3.13;;;6.50;88.00;;;;;;5113798;28;20661;-58
2021/01/26 12:42:36;;;;;;;4.47;1.90;;;6.60;88.80;;;;;;5114128;28;20675;-58
2021/01/26 12:45:04;;;;;;;2.33;2.13;;;6.70;87.90;;;;;;5095550;28;20680;-56
2021/01/26 12:47:31;;;;;;;2.80;2.10;;;6.70;88.20;;;;;;5113865;28;20999;-58
2021/01/26 12:49:58;;;;;;;3.03;2.50;;;6.70;89.40;;;;;;5113706;28;20642;-59
2021/01/26 12:52:25;;;;;;;9.60;3.23;;;6.90;89.80;;;;;;5113603;28;20622;-58
2021/01/26 12:54:55;;;;;;;4.40;2.20;;;7.00;87.70;;;;;;5095574;28;20717;-57
2021/01/26 12:57:22;;;;;;;5.60;1.77;;;6.90;85.20;;;;;;5095662;27;20636;-58
2021/01/26 12:59:51;;;;;;;7.10;2.67;;;6.90;85.80;;;;;;5094982;28;20666;-59
2021/01/26 13:02:19;;;;;;;3.20;1.20;;;6.90;85.20;;;;;;5110562;27;21179;-60
2021/01/26 13:04:46;;;;;;;2.27;1.50;;;6.90;85.20;;;;;;5125502;27;21275;-58
2021/01/26 13:07:14;;;;;;;2.67;1.67;;;6.80;85.10;;;;;;5113473;28;20630;-60
2021/01/26 13:09:41;;;;;;;1.50;0.97;;;6.80;85.80;;;;;;5096018;28;21039;-58